Seattle, WA

10:31 AM PDT on September 19, 2014 (GMT -0700)
Seattle-Tacoma International | Change Station
CLOSE
Current Station
Airport
Location: Seattle,
Elevation: 433 ft
Nearby Weather Stations

Elev 433 ft 47.44 °N, 122.31 °W | Updated 38 minutes ago

Overcast
Overcast
66 °F
Feels Like 66 °F
N
8
Wind Variable Wind from SSW

Today
High -- | Low -- °F
--% Chance of Precip.
Yesterday
High -- | Low -- °F
Precip. -- in
6:52 AM 7:13 PM
Waning Crescent, 18% visible
Pressure 30.12 in
Visibility 10.0 miles
Clouds Few 1800 ft
Scattered Clouds 3000 ft
Mostly Cloudy 8000 ft
Dew Point 57 °F
Humidity 73%
Rainfall 0.00 in
Snow Depth 0 in , 0 in , 0 in
UV 2 out of 12
Pollen 1.10 out of 12
Air Quality Not available.
Flu Activity Not available.
METAR KSEA 191653Z 20007KT 10SM FEW018 SCT030 BKN080 19/14 A3011 RMK AO2 SLP199 T01890139

More Conditions Fewer Conditions

Pressure 30.12 in
Visibility 10.0 miles
Clouds Few 1800 ft
Scattered Clouds 3000 ft
Mostly Cloudy 8000 ft
Dew Point 57 °F
Humidity 73%
Rainfall 0.00 in
Snow Depth 0 in , 0 in , 0 in
UV 2 out of 12
Pollen 1.10 out of 12
Air Quality Not available.
Flu Activity Not available.
METAR KSEA 191653Z 20007KT 10SM FEW018 SCT030 BKN080 19/14 A3011 RMK AO2 SLP199 T01890139

More Conditions Fewer Conditions

10-Day Weather Forecast

Almanac

Astronomy

Sep. 19, 2014 Rise Set
Actual Time 6:52 AM PDT 7:13 PM PDT
Civil Twilight 6:21 AM PDT 7:43 PM PDT
Nautical Twilight 5:44 AM PDT 8:20 PM PDT
Astronomical Twilight 5:07 AM PDT 8:57 PM PDT
Moon 2:28 AM PDT 4:57 PM PDT
Length of Visible Light 13h 22m
Length of Day
12h 20m
Tomorrow will be 3m 24s shorter.
Waning Crescent, 18% of the Moon is Illuminated
Today
Waning Crescent
Sep 24
New
Oct 1
First Quarter
Oct 8
Full
Oct 15
Last Quarter

Today's Extremes

State Highs State Lows

Community

WunderPhotos

Upload Photos

1,754,663 photos uploaded!

Nearby

Air Quality

  Air Quality AQ Index Pollutant
Friday Good
PM2.5
Friday Good
OZONE
Saturday Good
PM2.5
Saturday Good
OZONE
Sunday Good
PM2.5
Sunday Good
OZONE
Monday Good
OZONE
Monday Good
PM2.5
Tuesday Good
OZONE
Tuesday Good
PM2.5

Snow Depth

Station Depth Elevation
Lone Pine 0 in 3800 ft
Pigtail Peak 0 in 5900 ft
Mount Crag 0 in 4050 ft
Quartz Peak 1 in 4700 ft
Morse Lake 0 in 5400 ft

Earthquake Activity

City Distance Mag. Time & Date
Seabeck, Washington 31 miles 4.0 3:06 AM PDT
2014-09-17
Morton, Washington 88 miles 3.0 5:43 AM PDT
2014-09-16
Minimum magnitude displayed is 2.5.

Coastal Water Temperatures

Place Temperature
Port Townsend, WA 54.0 °F
Seattle, WA 55.9 °F
Friday Harbor, WA 52.0 °F
Tacoma, WA 55.0 °F

Nearby Weather Stations